createdAt,value
2019-05-05T00:05:08.652Z,3.40
2019-05-05T00:10:19.854Z,3.40
2019-05-05T00:15:59.118Z,3.30
2019-05-05T00:21:04.702Z,3.30
2019-05-05T00:26:10.182Z,3.20
2019-05-05T00:31:15.577Z,3.10
2019-05-05T00:36:21.010Z,3.10
2019-05-05T00:41:26.472Z,3.10
2019-05-05T00:46:46.246Z,3.00
2019-05-05T00:51:51.795Z,3.00
2019-05-05T00:56:57.671Z,2.90
2019-05-05T01:02:20.434Z,2.90
2019-05-05T01:07:25.894Z,2.80
2019-05-05T01:12:31.377Z,2.80
2019-05-05T01:17:36.824Z,2.80
2019-05-05T01:22:42.255Z,2.70
2019-05-05T01:27:47.729Z,2.60
2019-05-05T01:32:57.190Z,2.60
2019-05-05T01:38:08.029Z,2.50
2019-05-05T01:43:14.640Z,2.50
2019-05-05T01:48:20.116Z,2.40
2019-05-05T01:53:25.522Z,2.30
2019-05-05T01:58:30.945Z,2.30
2019-05-05T02:03:36.384Z,2.20
2019-05-05T02:08:41.783Z,2.20
2019-05-05T02:13:47.226Z,2.10
2019-05-05T02:18:54.408Z,2.10
2019-05-05T02:23:59.968Z,2.10
2019-05-05T02:29:14.272Z,2.00
2019-05-05T02:34:19.813Z,2.00
2019-05-05T02:39:25.217Z,2.00
2019-05-05T02:44:30.659Z,2.00
2019-05-05T02:49:36.618Z,1.90
2019-05-05T02:54:44.143Z,1.90
2019-05-05T02:59:55.357Z,1.90
2019-05-05T03:05:00.822Z,1.90
2019-05-05T03:10:06.946Z,1.90
2019-05-05T03:15:16.607Z,1.90
2019-05-05T03:20:23.789Z,1.80
2019-05-05T03:25:29.224Z,1.80
2019-05-05T03:30:35.571Z,1.80
2019-05-05T03:35:41.211Z,1.80
2019-05-05T03:40:49.392Z,1.80
2019-05-05T03:45:56.942Z,1.80
2019-05-05T03:51:16.061Z,1.80
2019-05-05T03:56:09.713Z,1.90
2019-05-05T04:02:07.778Z,1.90
2019-05-05T04:07:13.938Z,2.00
2019-05-05T04:12:19.503Z,2.10
2019-05-05T04:17:39.575Z,2.20
2019-05-05T04:22:45.022Z,2.30
2019-05-05T04:27:50.464Z,2.50
2019-05-05T04:32:55.953Z,2.70
2019-05-05T04:38:01.381Z,3.00
2019-05-05T04:43:07.079Z,3.40
2019-05-05T04:48:17.099Z,3.70
2019-05-05T04:53:28.024Z,4.10
2019-05-05T04:58:33.658Z,4.40
2019-05-05T05:04:00.915Z,4.70
2019-05-05T05:09:07.470Z,5.10
2019-05-05T05:14:14.335Z,5.50
2019-05-05T05:19:19.923Z,5.80
2019-05-05T05:24:25.379Z,5.90
2019-05-05T05:29:30.774Z,6.00
2019-05-05T05:34:36.181Z,6.10
2019-05-05T05:40:06.140Z,6.20
2019-05-05T05:45:23.790Z,6.20
2019-05-05T05:50:33.986Z,6.30
2019-05-05T05:55:39.540Z,6.60
2019-05-05T06:00:45.122Z,6.80
2019-05-05T06:05:50.530Z,7.00
2019-05-05T06:10:55.955Z,7.30
2019-05-05T06:16:01.442Z,7.90
2019-05-05T06:21:07.040Z,8.60
2019-05-05T06:26:14.897Z,9.20
2019-05-05T06:31:19.569Z,10.20
2019-05-05T06:36:25.017Z,11.10
2019-05-05T06:41:39.932Z,11.70
2019-05-05T06:47:05.749Z,11.80
2019-05-05T06:52:11.240Z,11.30
2019-05-05T06:57:16.673Z,10.70
2019-05-05T07:02:23.784Z,10.20
2019-05-05T07:07:29.600Z,10.00
2019-05-05T07:12:35.065Z,9.80
2019-05-05T07:17:40.711Z,9.60
2019-05-05T07:22:58.862Z,9.30
2019-05-05T07:27:54.740Z,9.00
2019-05-05T07:33:00.316Z,8.80
2019-05-05T07:38:05.866Z,8.90
2019-05-05T07:43:11.319Z,9.10
2019-05-05T07:48:16.744Z,9.20
2019-05-05T07:53:24.340Z,9.40
2019-05-05T07:58:29.281Z,9.90
2019-05-05T08:03:34.703Z,12.20
2019-05-05T08:08:40.200Z,15.30
2019-05-05T08:13:45.725Z,18.20
2019-05-05T08:19:24.204Z,21.60
2019-05-05T08:25:06.816Z,25.00
2019-05-05T08:30:31.133Z,24.10
2019-05-05T08:35:36.718Z,25.50
2019-05-05T08:40:43.855Z,28.90
2019-05-05T08:45:49.771Z,33.40
2019-05-05T08:50:55.590Z,32.60
2019-05-05T08:56:01.446Z,28.80
2019-05-05T09:01:07.164Z,28.90
2019-05-05T09:06:13.751Z,32.50
2019-05-05T09:11:19.694Z,34.20
2019-05-05T09:16:25.532Z,37.10
2019-05-05T09:21:31.275Z,38.90
2019-05-05T09:26:54.095Z,34.90
2019-05-05T09:32:00.065Z,29.10
2019-05-05T09:37:06.522Z,23.30
2019-05-05T09:42:14.312Z,19.80
2019-05-05T09:47:19.123Z,17.90
2019-05-05T09:52:24.573Z,16.90
2019-05-05T09:57:30.203Z,16.60
2019-05-05T10:02:35.611Z,16.80
2019-05-05T10:07:41.137Z,17.50
2019-05-05T10:12:46.594Z,17.70
2019-05-05T10:17:54.069Z,17.70
2019-05-05T10:22:59.179Z,17.10
2019-05-05T10:28:04.716Z,15.80
2019-05-05T10:33:10.143Z,14.70
2019-05-05T10:38:15.711Z,14.00
2019-05-05T10:43:21.162Z,14.00
2019-05-05T10:48:26.667Z,14.20
2019-05-05T10:53:32.088Z,14.20
2019-05-05T10:58:37.610Z,14.20
2019-05-05T11:03:44.677Z,14.30
2019-05-05T11:08:50.233Z,14.70
2019-05-05T11:13:55.788Z,14.90
2019-05-05T11:19:01.225Z,14.60
2019-05-05T11:24:06.745Z,14.10
2019-05-05T11:29:13.580Z,13.90
2019-05-05T11:34:26.168Z,13.80
2019-05-05T11:39:34.076Z,13.60
2019-05-05T11:44:39.727Z,13.60
2019-05-05T11:49:45.229Z,13.80
2019-05-05T11:54:50.715Z,14.20
2019-05-05T11:59:56.863Z,14.80
2019-05-05T12:05:04.470Z,15.50
2019-05-05T12:10:21.274Z,16.20
2019-05-05T12:15:27.047Z,16.60
2019-05-05T12:20:36.014Z,16.60
2019-05-05T12:25:57.428Z,16.30
2019-05-05T12:31:05.467Z,15.80
2019-05-05T12:36:10.898Z,14.70
2019-05-05T12:41:16.385Z,13.60
2019-05-05T12:46:29.951Z,13.30
2019-05-05T12:51:35.496Z,13.80
2019-05-05T12:56:40.973Z,14.30
2019-05-05T13:01:46.527Z,14.70
2019-05-05T13:06:53.992Z,14.40
2019-05-05T13:11:59.196Z,14.30
2019-05-05T13:17:04.728Z,14.20
2019-05-05T13:22:33.672Z,14.10
2019-05-05T13:27:41.416Z,13.80
2019-05-05T13:32:46.838Z,13.70
2019-05-05T13:37:52.279Z,14.20
2019-05-05T13:42:57.678Z,14.70
2019-05-05T13:48:03.597Z,14.90
2019-05-05T13:53:09.097Z,14.70
2019-05-05T13:58:14.748Z,14.60
2019-05-05T14:03:20.301Z,14.70
2019-05-05T14:08:25.797Z,14.40
2019-05-05T14:13:31.262Z,13.70
2019-05-05T14:18:36.830Z,13.30
2019-05-05T14:24:10.396Z,13.00
2019-05-05T14:29:34.735Z,12.90
2019-05-05T14:34:44.024Z,12.90
2019-05-05T14:39:49.258Z,12.90
2019-05-05T14:44:54.733Z,12.80
2019-05-05T14:50:00.298Z,12.70
2019-05-05T14:55:05.933Z,12.70
2019-05-05T15:00:13.822Z,12.70
2019-05-05T15:05:38.181Z,12.70
2019-05-05T15:11:08.293Z,13.10
2019-05-05T15:16:14.047Z,13.80
2019-05-05T15:21:19.529Z,13.90
2019-05-05T15:26:24.938Z,13.90
2019-05-05T15:31:30.346Z,14.00
2019-05-05T15:36:35.797Z,14.00
2019-05-05T15:41:41.812Z,14.30
2019-05-05T15:46:48.627Z,14.30
2019-05-05T15:51:54.123Z,14.10
2019-05-05T15:57:05.400Z,14.00
2019-05-05T16:02:06.908Z,13.90
2019-05-05T16:07:13.854Z,13.60
2019-05-05T16:12:31.215Z,13.20
2019-05-05T16:17:39.236Z,12.70
2019-05-05T16:22:50.164Z,12.40
2019-05-05T16:27:55.670Z,12.20
2019-05-05T16:33:01.211Z,12.10
2019-05-05T16:38:06.772Z,12.20
2019-05-05T16:43:14.036Z,12.50
2019-05-05T16:48:19.831Z,12.50
2019-05-05T16:53:38.205Z,12.30
2019-05-05T16:58:45.063Z,12.00
2019-05-05T17:03:50.682Z,11.60
2019-05-05T17:08:56.100Z,11.30
2019-05-05T17:14:09.022Z,11.00
2019-05-05T17:19:24.734Z,10.70
2019-05-05T17:24:30.142Z,10.40
2019-05-05T17:29:35.622Z,10.30
2019-05-05T17:34:41.146Z,10.20
2019-05-05T17:39:54.452Z,10.10
2019-05-05T17:45:15.453Z,10.00
2019-05-05T17:50:24.701Z,9.90
2019-05-05T17:55:33.665Z,9.80
2019-05-05T18:00:47.038Z,9.70
2019-05-05T18:06:17.493Z,9.50
2019-05-05T18:11:39.560Z,9.40
2019-05-05T18:16:45.033Z,9.30
2019-05-05T18:21:50.546Z,9.10
2019-05-05T18:26:55.951Z,9.00
2019-05-05T18:32:01.411Z,9.00
2019-05-05T18:37:06.848Z,8.80
2019-05-05T18:42:24.577Z,8.80
2019-05-05T18:47:30.226Z,8.70
2019-05-05T18:52:35.740Z,8.60
2019-05-05T18:57:43.366Z,8.50
2019-05-05T19:03:15.115Z,8.40
2019-05-05T19:08:29.839Z,8.40
2019-05-05T19:13:35.274Z,8.30
2019-05-05T19:18:40.739Z,8.10
2019-05-05T19:23:46.194Z,8.00
2019-05-05T19:28:51.633Z,7.80
2019-05-05T19:33:57.047Z,7.70
2019-05-05T19:39:04.089Z,7.50
2019-05-05T19:44:09.821Z,7.40
2019-05-05T19:49:16.095Z,7.30
2019-05-05T19:54:21.482Z,7.20
2019-05-05T19:59:26.875Z,7.10
2019-05-05T20:04:33.723Z,7.00
2019-05-05T20:09:39.309Z,7.00
2019-05-05T20:14:44.800Z,7.00
2019-05-05T20:19:50.308Z,7.10
2019-05-05T20:24:56.516Z,7.10
2019-05-05T20:30:06.186Z,7.20
2019-05-05T20:35:27.050Z,7.30
2019-05-05T20:40:35.415Z,7.50
2019-05-05T20:45:40.891Z,7.60
2019-05-05T20:50:46.419Z,7.80
2019-05-05T20:55:51.834Z,7.90
2019-05-05T21:00:57.785Z,8.10
2019-05-05T21:06:04.454Z,8.20
2019-05-05T21:11:10.122Z,8.20
2019-05-05T21:16:15.810Z,8.10
2019-05-05T21:21:24.843Z,8.00
2019-05-05T21:27:07.512Z,7.80
2019-05-05T21:32:13.865Z,7.60
2019-05-05T21:37:19.308Z,7.40
2019-05-05T21:42:24.775Z,7.40
2019-05-05T21:47:30.185Z,7.40
2019-05-05T21:52:44.084Z,7.40
2019-05-05T21:58:07.074Z,7.50
2019-05-05T22:03:14.135Z,7.50
2019-05-05T22:08:19.554Z,7.40
2019-05-05T22:13:24.925Z,7.40
2019-05-05T22:18:30.375Z,7.20
2019-05-05T22:23:36.780Z,7.00
2019-05-05T22:28:44.516Z,6.90
2019-05-05T22:33:49.422Z,6.70
2019-05-05T22:38:54.884Z,6.60
2019-05-05T22:44:00.306Z,6.50
2019-05-05T22:49:05.749Z,6.40
2019-05-05T22:54:11.159Z,6.20
2019-05-05T22:59:16.611Z,6.10
2019-05-05T23:04:44.010Z,6.00
2019-05-05T23:09:49.416Z,5.90
2019-05-05T23:14:54.885Z,5.90
2019-05-05T23:20:16.359Z,5.80
2019-05-05T23:25:27.294Z,5.70
2019-05-05T23:30:41.154Z,5.60
2019-05-05T23:35:39.902Z,5.50
2019-05-05T23:40:45.296Z,5.40
2019-05-05T23:45:50.731Z,5.40
2019-05-05T23:50:56.147Z,5.30
2019-05-05T23:56:03.852Z,5.30
